ADDS METAR Data INFO
IDs: Format: Raw Decoded Include TAF

Data at: 2053 UTC 24 Jun 2018

KLNC 242035Z AUTO 16017G23KT 10SM CLR 36/20 A2982 RMK AO2 T03570204
KLNC 242015Z AUTO 15020G24KT 10SM CLR 35/21 A2981 RMK AO2 T03540208
KLNC 241955Z AUTO 17019G25KT 10SM SCT055 36/21 A2982 RMK AO2 T03550210
KLNC 241935Z AUTO 16019G24KT 10SM SCT055 35/21 A2983 RMK AO2 T03490211
KLNC 241915Z AUTO 15016G21KT 10SM SCT050 35/21 A2984 RMK AO2 T03480210
KLNC 241855Z AUTO 15013G20KT 10SM CLR 34/22 A2985 RMK AO2 T03430215
KLNC 241835Z AUTO 17012G18KT 140V200 10SM SCT044 34/21 A2986 RMK AO2 T03350214
KLNC 241815Z AUTO 17012G22KT 10SM SCT044 33/21 A2987 RMK AO2 T03260210
KLNC 241755Z AUTO 18015G22KT 10SM CLR 33/21 A2987 RMK AO2 T03250209 10326 20265
KLNC 241735Z AUTO 20015G22KT 10SM CLR 32/21 A2988 RMK AO2 T03230207
KLNC 241715Z AUTO 19015G21KT 10SM SCT041 32/21 A2988 RMK AO2 T03220208
KLNC 241655Z AUTO 18013G18KT 10SM SCT041 30/21 A2989 RMK AO2 T03020207
KLNC 241635Z AUTO 19012G25KT 160V220 10SM SCT039 SCT044 31/21 A2989 RMK AO2 T03060206
KLNC 241615Z AUTO 17012G20KT 10SM SCT039 31/21 A2989 RMK AO2 T03130211
KLNC 241555Z AUTO 16017G22KT 10SM SCT037 SCT046 31/22 A2989 RMK AO2 T03080215
KLNC 241535Z AUTO 19014G19KT 10SM SCT038 BKN044 SCT050 31/22 A2989 RMK AO2 T03060215
KLNC 241515Z AUTO 19012KT 10SM SCT036 BKN044 29/22 A2991 RMK AO2 LTG DSNT E T02940216
KLNC 241455Z AUTO 17005KT 10SM SCT033 BKN040 BKN046 28/22 A2990 RMK AO2 T02830221
KLNC 241435Z AUTO 17006KT 10SM SCT029 BKN041 OVC049 28/22 A2990 RMK AO2 T02750220
KLNC 241415Z AUTO 18008KT 10SM SCT029 BKN034 OVC042 27/22 A2990 RMK AO2 T02710219
KLNC 241355Z AUTO 18008KT 10SM SCT025 OVC032 27/22 A2989 RMK AO2 T02710220
KLNC 241335Z AUTO 19006KT 10SM BKN027 OVC032 27/22 A2989 RMK AO2 T02680220
KLNC 241315Z AUTO 18009G16KT 10SM BKN026 BKN032 27/22 A2985 RMK AO2 T02660220
KLNC 241255Z AUTO 18010KT 10SM SCT026 BKN032 27/22 A2984 RMK AO2 T02650220
KLNC 241235Z AUTO 17013G17KT 10SM SCT029 OVC036 27/22 A2984 RMK AO2 T02650218
KLNC 241215Z AUTO 18012G18KT 10SM SCT027 BKN031 OVC037 27/22 A2984 RMK AO2 T02660216
KLNC 241155Z AUTO 19012G18KT 10SM OVC027 27/22 A2983 RMK AO2 T02660216 10286 20265
KLNC 241135Z AUTO 20008G17KT 10SM BKN029 OVC034 27/22 A2982 RMK AO2 T02650215
KLNC 241115Z AUTO 19012G18KT 10SM BKN029 27/22 A2981 RMK AO2 T02660215
KLNC 241055Z AUTO 17013G23KT 10SM CLR 27/22 A2976 RMK AO2 T02650215
KLNC 241035Z AUTO 17016G24KT 10SM CLR 27/22 A2974 RMK AO2 T02650215
KLNC 241015Z AUTO 16015G23KT 10SM CLR 27/22 A2972 RMK AO2 T02660216
KLNC 240955Z AUTO 18014G25KT 10SM CLR 27/22 A2971 RMK AO2 T02670216
KLNC 240935Z AUTO 19021G32KT 10SM CLR 27/22 A2969 RMK AO2 T02670217
KLNC 240915Z AUTO 18019G27KT 10SM CLR 27/22 A2971 RMK AO2 T02670220
KLNC 240855Z AUTO 17019G29KT 10SM CLR 27/22 A2971 RMK AO2 T02680220
KLNC 240835Z AUTO 17017G24KT 10SM CLR 27/22 A2972 RMK AO2 T02680220
KLNC 240815Z AUTO 16019G25KT 10SM CLR 27/22 A2973 RMK AO2 T02690222
KLNC 240755Z AUTO 17012G21KT 10SM CLR 27/22 A2976 RMK AO2 T02700221
KLNC 240735Z AUTO 16015G25KT 10SM CLR 27/22 A2978 RMK AO2 T02730221
KLNC 240715Z AUTO 18016G21KT 10SM CLR 28/22 A2982 RMK AO2 T02750220
KLNC 240655Z AUTO 17014G21KT 10SM CLR 28/22 A2984 RMK AO2 LTG DSNT W AND NW T02780217
KLNC 240635Z AUTO 17012G19KT 10SM CLR 28/22 A2984 RMK AO2 LTG DSNT SW THRU NW T02810216
KLNC 240615Z AUTO 19012G18KT 10SM CLR 28/22 A2986 RMK AO2 T02840215
KLNC 240555Z AUTO 19015G20KT 10SM CLR 29/21 A2984 RMK AO2 LTG DSNT W AND NW T02850213 10338 20285 403500257
KLNC 240535Z AUTO 17008G15KT 10SM CLR 29/22 A2983 RMK AO2 LTG DSNT SW AND W T02860215
KLNC 240515Z AUTO 17007KT 10SM CLR 29/21 A2983 RMK AO2 T02880212
KLNC 240455Z AUTO 16012G17KT 10SM CLR 29/21 A2981 RMK AO2 T02880212
KLNC 240435Z AUTO 16006KT 10SM CLR 29/21 A2983 RMK AO2 T02870211
KLNC 240415Z AUTO 15007KT 10SM CLR 29/21 A2982 RMK AO2 T02890211
KLNC 240355Z AUTO 14006KT 10SM CLR 29/21 A2980 RMK AO2 T02900211
KLNC 240335Z AUTO 14008KT 10SM CLR 30/21 A2978 RMK AO2 T02950211
KLNC 240315Z AUTO 14009KT 10SM SCT065 30/21 A2977 RMK AO2 T03000212
KLNC 240255Z AUTO 14008KT 10SM OVC065 31/21 A2977 RMK AO2 T03050214
KLNC 240235Z AUTO 14008KT 10SM OVC065 31/21 A2976 RMK AO2 T03080212
KLNC 240215Z AUTO 14008KT 10SM OVC065 31/21 A2975 RMK AO2 T03100213
KLNC 240155Z AUTO 13007KT 10SM BKN065 31/21 A2975 RMK AO2 T03120212
KLNC 240135Z AUTO 13008KT 10SM BKN065 32/21 A2975 RMK AO2 T03170210
KLNC 240115Z AUTO 13007KT 10SM BKN065 32/21 A2975 RMK AO2 T03210208
KLNC 240055Z AUTO 14011G14KT 10SM BKN065 33/21 A2975 RMK AO2 T03250207
KLNC 240035Z AUTO 13010KT 10SM SCT065 33/21 A2975 RMK AO2 T03280208
KLNC 240015Z AUTO 14010G16KT 10SM SCT065 33/21 A2974 RMK AO2 T03320206
KLNC 232355Z AUTO 14012G17KT 10SM SCT065 34/21 A2974 RMK AO2 T03390207 10350 20324
KLNC 232335Z AUTO 15012KT 10SM SCT065 34/21 A2974 RMK AO2 T03360206
KLNC 232315Z AUTO 15010G18KT 10SM SCT065 34/21 A2975 RMK AO2 T03410208
KLNC 232255Z AUTO 14013G19KT 10SM SCT065 34/21 A2975 RMK AO2 T03420208
KLNC 232235Z AUTO 14010G19KT 10SM SCT065 34/20 A2975 RMK AO2 T03440204
KLNC 232215Z AUTO 14013G18KT 10SM CLR 35/21 A2976 RMK AO2 T03480205
KLNC 232155Z AUTO 14015G20KT 10SM CLR 35/21 A2976 RMK AO2 T03490206
KLNC 232135Z AUTO 15013G20KT 10SM CLR 35/21 A2977 RMK AO2 T03500213
KLNC 232115Z AUTO 16013G18KT 10SM CLR 35/22 A2977 RMK AO2 T03490217
KLNC 232055Z AUTO 17016G20KT 10SM SCT050 35/21 A2977 RMK AO2 T03470214
KLNC 232035Z AUTO 15011G18KT 10SM SCT050 35/22 A2978 RMK AO2 T03450224
KLNC 232015Z AUTO 15012KT 10SM BKN050 33/22 A2978 RMK AO2 T03330220
KLNC 231955Z AUTO 16012G19KT 10SM SCT048 33/22 A2979 RMK AO2 T03330221
KLNC 231935Z AUTO 14014G20KT 10SM SCT045 SCT050 33/23 A2980 RMK AO2 T03330226
KLNC 231915Z AUTO 14012G19KT 10SM SCT050 SCT060 34/23 A2981 RMK AO2 T03420227
KLNC 231855Z AUTO 14012G16KT 10SM SCT044 SCT050 34/23 A2982 RMK AO2 T03370227
KLNC 231835Z AUTO 16011G16KT 10SM SCT041 SCT047 34/23 A2983 RMK AO2 T03350226
KLNC 231815Z AUTO 16014KT 10SM SCT039 SCT050 33/23 A2984 RMK AO2 T03300226
KLNC 231755Z AUTO 13007G16KT 10SM BKN039 BKN050 32/23 A2985 RMK AO2 T03210232 10325 20260
KLNC 231735Z AUTO 14008G15KT 10SM BKN039 BKN050 32/24 A2986 RMK AO2 T03210235
KLNC 231715Z AUTO 14010KT 10SM SCT036 BKN042 BKN050 32/24 A2987 RMK AO2 T03210236
KLNC 231655Z AUTO 14010KT 10SM BKN033 BKN042 BKN049 32/24 A2987 RMK AO2 T03180240
KLNC 231635Z AUTO 14007KT 10SM SCT026 BKN032 OVC045 31/24 A2987 RMK AO2 T03050238
KLNC 231615Z AUTO 12003KT 10SM SCT028 BKN035 BKN044 30/24 A2988 RMK AO2 T02970238
KLNC 231555Z AUTO 14007KT 10SM BKN025 BKN031 30/24 A2988 RMK AO2 T03000241
KLNC 231535Z AUTO 11003KT 10SM SCT021 BKN027 29/24 A2989 RMK AO2 T02900239
KLNC 231515Z AUTO 12005KT 10SM SCT020 29/24 A2988 RMK AO2 T02900238
KLNC 231455Z AUTO 12003KT 10SM SCT017 SCT065 SCT080 28/24 A2989 RMK AO2 T02830235
KLNC 231435Z AUTO 15003KT 10SM SCT060 BKN080 28/24 A2989 RMK AO2 T02810238
KLNC 231415Z AUTO 00000KT 10SM BKN060 27/23 A2989 RMK AO2 LTG DSNT NE T02720232
KLNC 231355Z AUTO 00000KT 10SM SCT018 OVC060 27/23 A2988 RMK AO2 T02690233
KLNC 231335Z AUTO 19004KT 10SM OVC018 27/23 A2988 RMK AO2 T02650230
KLNC 231315Z AUTO 17003KT 10SM BKN016 OVC022 27/23 A2987 RMK AO2 T02650231
KLNC 231255Z AUTO 20004KT 10SM BKN016 OVC021 26/23 A2986 RMK AO2 T02630231
KLNC 231235Z AUTO 19005KT 10SM OVC013 26/23 A2984 RMK AO2 T02610232
KLNC 231215Z AUTO 17007KT 10SM OVC013 26/24 A2984 RMK AO2 T02620235
KLNC 231155Z AUTO 17006KT 10SM OVC015 26/24 A2982 RMK AO2 T02640236 10286 20257
KLNC 231135Z AUTO 16006KT 10SM OVC015 26/24 A2982 RMK AO2 T02640241
KLNC 231115Z AUTO 16003KT 10SM OVC015 27/24 A2983 RMK AO2 T02660241
KLNC 231055Z AUTO 00000KT 10SM OVC015 27/24 A2984 RMK AO2 T02660242
KLNC 231035Z AUTO 00000KT 10SM OVC015 27/24 A2983 RMK AO2 T02660240
KLNC 231015Z AUTO 00000KT 10SM OVC015 27/24 A2982 RMK AO2 T02650240
KLNC 230955Z AUTO 00000KT 7SM BKN017 26/24 A2983 RMK AO2 T02600238
KLNC 230935Z AUTO 15005KT 10SM BKN017 26/24 A2982 RMK AO2 T02610237
KLNC 230915Z AUTO 00000KT 10SM BKN017 26/24 A2983 RMK AO2 T02600235
KLNC 230855Z AUTO 00000KT 10SM SCT019 26/23 A2982 RMK AO2 T02580232